sensor_id;sensor_type;location;lat;lon;timestamp;pressure;altitude;pressure_sealevel;temperature;humidity
63088;BME280;49173;43.164;27.786;2023-03-19T00:00:20;101100.09;;;6.49;93.39
63088;BME280;49173;43.164;27.786;2023-03-19T00:02:46;101101.94;;;6.45;93.68
63088;BME280;49173;43.164;27.786;2023-03-19T00:05:16;101108.91;;;6.51;93.06
63088;BME280;49173;43.164;27.786;2023-03-19T00:07:43;101107.16;;;6.50;92.71
63088;BME280;49173;43.164;27.786;2023-03-19T00:10:09;101108.09;;;6.49;93.13
63088;BME280;49173;43.164;27.786;2023-03-19T00:12:35;101100.19;;;6.44;92.90
63088;BME280;49173;43.164;27.786;2023-03-19T00:15:01;101097.38;;;6.50;92.98
63088;BME280;49173;43.164;27.786;2023-03-19T00:17:27;101103.53;;;6.52;92.75
63088;BME280;49173;43.164;27.786;2023-03-19T00:19:53;101093.75;;;6.53;92.62
63088;BME280;49173;43.164;27.786;2023-03-19T00:22:19;101091.19;;;6.48;92.44
63088;BME280;49173;43.164;27.786;2023-03-19T00:24:45;101093.84;;;6.48;92.93
63088;BME280;49173;43.164;27.786;2023-03-19T00:27:10;101094.78;;;6.47;92.18
63088;BME280;49173;43.164;27.786;2023-03-19T00:29:37;101085.84;;;6.50;92.88
63088;BME280;49173;43.164;27.786;2023-03-19T00:32:03;101094.81;;;6.46;92.97
63088;BME280;49173;43.164;27.786;2023-03-19T00:34:29;101091.31;;;6.44;92.96
63088;BME280;49173;43.164;27.786;2023-03-19T00:36:55;101093.03;;;6.46;92.57
63088;BME280;49173;43.164;27.786;2023-03-19T00:39:21;101100.25;;;6.43;93.03
63088;BME280;49173;43.164;27.786;2023-03-19T00:41:47;101096.72;;;6.42;92.95
63088;BME280;49173;43.164;27.786;2023-03-19T00:44:18;101090.50;;;6.40;92.99
63088;BME280;49173;43.164;27.786;2023-03-19T00:46:44;101087.06;;;6.37;93.14
63088;BME280;49173;43.164;27.786;2023-03-19T00:49:10;101089.75;;;6.37;93.58
63088;BME280;49173;43.164;27.786;2023-03-19T00:51:36;101092.34;;;6.38;93.29
63088;BME280;49173;43.164;27.786;2023-03-19T00:54:02;101088.09;;;6.31;92.98
63088;BME280;49173;43.164;27.786;2023-03-19T00:56:28;101089.03;;;6.30;92.95
63088;BME280;49173;43.164;27.786;2023-03-19T00:58:55;101083.72;;;6.28;93.25
63088;BME280;49173;43.164;27.786;2023-03-19T01:01:21;101080.94;;;6.33;92.75
63088;BME280;49173;43.164;27.786;2023-03-19T01:03:47;101087.91;;;6.39;92.87
63088;BME280;49173;43.164;27.786;2023-03-19T01:06:13;101090.66;;;6.36;93.42
63088;BME280;49173;43.164;27.786;2023-03-19T01:08:39;101080.91;;;6.35;93.24
63088;BME280;49173;43.164;27.786;2023-03-19T01:11:08;101075.66;;;6.31;93.25
63088;BME280;49173;43.164;27.786;2023-03-19T01:13:35;101089.69;;;6.38;93.21
63088;BME280;49173;43.164;27.786;2023-03-19T01:16:01;101070.19;;;6.36;92.66
63088;BME280;49173;43.164;27.786;2023-03-19T01:18:27;101067.41;;;6.41;92.59
63088;BME280;49173;43.164;27.786;2023-03-19T01:20:53;101070.97;;;6.40;92.46
63088;BME280;49173;43.164;27.786;2023-03-19T01:23:18;101068.47;;;6.35;92.48
63088;BME280;49173;43.164;27.786;2023-03-19T01:25:44;101064.06;;;6.32;92.83
63088;BME280;49173;43.164;27.786;2023-03-19T01:28:10;101065.91;;;6.30;93.22
63088;BME280;49173;43.164;27.786;2023-03-19T01:30:49;101074.88;;;6.26;93.19
63088;BME280;49173;43.164;27.786;2023-03-19T01:33:15;101064.31;;;6.23;93.32
63088;BME280;49173;43.164;27.786;2023-03-19T01:35:44;101074.16;;;6.20;93.65
63088;BME280;49173;43.164;27.786;2023-03-19T01:38:12;101073.28;;;6.19;93.57
63088;BME280;49173;43.164;27.786;2023-03-19T01:40:45;101073.38;;;6.16;93.53
63088;BME280;49173;43.164;27.786;2023-03-19T01:43:17;101074.25;;;6.17;93.93
63088;BME280;49173;43.164;27.786;2023-03-19T01:45:45;101077.75;;;6.19;93.50
63088;BME280;49173;43.164;27.786;2023-03-19T01:48:40;101083.13;;;6.17;94.06
63088;BME280;49173;43.164;27.786;2023-03-19T01:51:04;101079.47;;;6.21;93.48
63088;BME280;49173;43.164;27.786;2023-03-19T01:53:32;101091.78;;;6.25;93.71
63088;BME280;49173;43.164;27.786;2023-03-19T01:56:08;101082.09;;;6.23;93.46
63088;BME280;49173;43.164;27.786;2023-03-19T01:58:38;101089.25;;;6.21;93.26
63088;BME280;49173;43.164;27.786;2023-03-19T02:01:04;101093.59;;;6.25;93.06
63088;BME280;49173;43.164;27.786;2023-03-19T02:03:30;101088.19;;;6.28;92.71
63088;BME280;49173;43.164;27.786;2023-03-19T02:05:58;101089.22;;;6.22;92.99
63088;BME280;49173;43.164;27.786;2023-03-19T02:08:24;101101.72;;;6.20;92.97
63088;BME280;49173;43.164;27.786;2023-03-19T02:10:53;101098.19;;;6.18;92.76
63088;BME280;49173;43.164;27.786;2023-03-19T02:13:21;101103.53;;;6.18;92.60
63088;BME280;49173;43.164;27.786;2023-03-19T02:15:49;101092.00;;;6.18;92.43
63088;BME280;49173;43.164;27.786;2023-03-19T02:18:15;101092.00;;;6.18;92.48
63088;BME280;49173;43.164;27.786;2023-03-19T02:26:19;101106.13;;;6.21;92.67
63088;BME280;49173;43.164;27.786;2023-03-19T02:28:47;101097.28;;;6.19;92.42
63088;BME280;49173;43.164;27.786;2023-03-19T02:31:14;101105.28;;;6.19;92.60
63088;BME280;49173;43.164;27.786;2023-03-19T02:33:41;101110.53;;;6.22;92.80
63088;BME280;49173;43.164;27.786;2023-03-19T02:36:15;101104.38;;;6.20;92.44
63088;BME280;49173;43.164;27.786;2023-03-19T02:38:43;101114.94;;;6.23;92.72
63088;BME280;49173;43.164;27.786;2023-03-19T02:41:11;101113.22;;;6.22;92.23
63088;BME280;49173;43.164;27.786;2023-03-19T02:43:38;101115.81;;;6.24;92.41
63088;BME280;49173;43.164;27.786;2023-03-19T02:46:07;101123.91;;;6.21;92.50
63088;BME280;49173;43.164;27.786;2023-03-19T02:48:34;101116.91;;;6.17;92.39
63088;BME280;49173;43.164;27.786;2023-03-19T02:51:01;101130.22;;;6.17;92.47
63088;BME280;49173;43.164;27.786;2023-03-19T02:53:26;101124.00;;;6.16;92.88
63088;BME280;49173;43.164;27.786;2023-03-19T02:55:52;101121.19;;;6.22;92.58
63088;BME280;49173;43.164;27.786;2023-03-19T02:58:18;101123.00;;;6.22;92.51
63088;BME280;49173;43.164;27.786;2023-03-19T03:00:44;101131.88;;;6.22;92.59
63088;BME280;49173;43.164;27.786;2023-03-19T03:03:11;101138.13;;;6.20;92.26
63088;BME280;49173;43.164;27.786;2023-03-19T03:05:36;101130.94;;;6.23;91.96
63088;BME280;49173;43.164;27.786;2023-03-19T03:08:03;101132.69;;;6.24;92.08
63088;BME280;49173;43.164;27.786;2023-03-19T03:10:31;101134.41;;;6.27;92.17
63088;BME280;49173;43.164;27.786;2023-03-19T03:12:57;101138.78;;;6.29;92.43
63088;BME280;49173;43.164;27.786;2023-03-19T03:15:23;101127.25;;;6.29;92.16
63088;BME280;49173;43.164;27.786;2023-03-19T03:17:49;101128.03;;;6.32;91.91
63088;BME280;49173;43.164;27.786;2023-03-19T03:20:15;101126.28;;;6.31;91.79
63088;BME280;49173;43.164;27.786;2023-03-19T03:22:42;101128.13;;;6.29;91.91
63088;BME280;49173;43.164;27.786;2023-03-19T03:25:09;101128.03;;;6.32;91.95
63088;BME280;49173;43.164;27.786;2023-03-19T03:27:36;101129.88;;;6.30;91.39
63088;BME280;49173;43.164;27.786;2023-03-19T03:30:08;101138.69;;;6.32;91.64
63088;BME280;49173;43.164;27.786;2023-03-19T03:32:36;101133.38;;;6.32;91.71
63088;BME280;49173;43.164;27.786;2023-03-19T03:35:04;101131.63;;;6.31;91.80
63088;BME280;49173;43.164;27.786;2023-03-19T03:37:30;101138.78;;;6.29;91.89
63088;BME280;49173;43.164;27.786;2023-03-19T03:39:55;101149.50;;;6.28;91.76
63088;BME280;49173;43.164;27.786;2023-03-19T03:42:21;101141.50;;;6.28;91.74
63088;BME280;49173;43.164;27.786;2023-03-19T03:44:47;101156.69;;;6.24;92.29
63088;BME280;49173;43.164;27.786;2023-03-19T03:47:13;101152.13;;;6.29;92.25
63088;BME280;49173;43.164;27.786;2023-03-19T03:49:39;101153.97;;;6.27;92.59
63088;BME280;49173;43.164;27.786;2023-03-19T03:52:05;101146.91;;;6.25;92.00
63088;BME280;49173;43.164;27.786;2023-03-19T03:54:30;101156.78;;;6.21;92.03
63088;BME280;49173;43.164;27.786;2023-03-19T03:56:56;101156.72;;;6.23;92.10
63088;BME280;49173;43.164;27.786;2023-03-19T03:59:22;101161.22;;;6.21;92.11
63088;BME280;49173;43.164;27.786;2023-03-19T04:01:50;101158.56;;;6.19;91.63
63088;BME280;49173;43.164;27.786;2023-03-19T04:04:16;101163.81;;;6.24;91.45
63088;BME280;49173;43.164;27.786;2023-03-19T04:06:41;101158.44;;;6.25;91.74
63088;BME280;49173;43.164;27.786;2023-03-19T04:09:07;101158.44;;;6.25;92.10
63088;BME280;49173;43.164;27.786;2023-03-19T04:11:34;101167.25;;;6.29;91.67
63088;BME280;49173;43.164;27.786;2023-03-19T04:14:00;101161.88;;;6.30;91.31
63088;BME280;49173;43.164;27.786;2023-03-19T04:16:27;101162.84;;;6.26;91.45
63088;BME280;49173;43.164;27.786;2023-03-19T04:18:53;101170.81;;;6.28;91.72
63088;BME280;49173;43.164;27.786;2023-03-19T04:21:19;101164.69;;;6.24;91.79
63088;BME280;49173;43.164;27.786;2023-03-19T04:23:46;101170.06;;;6.23;91.84
63088;BME280;49173;43.164;27.786;2023-03-19T04:26:12;101169.97;;;6.26;92.01
63088;BME280;49173;43.164;27.786;2023-03-19T04:28:38;101174.50;;;6.22;91.84
63088;BME280;49173;43.164;27.786;2023-03-19T04:31:06;101172.97;;;6.12;92.06
63088;BME280;49173;43.164;27.786;2023-03-19T04:33:33;101179.25;;;6.10;92.27
63088;BME280;49173;43.164;27.786;2023-03-19T04:35:58;101187.28;;;6.08;91.63
63088;BME280;49173;43.164;27.786;2023-03-19T04:38:25;101172.22;;;6.07;91.36
63088;BME280;49173;43.164;27.786;2023-03-19T04:40:51;101177.41;;;6.13;91.45
63088;BME280;49173;43.164;27.786;2023-03-19T04:43:17;101187.25;;;6.10;91.33
63088;BME280;49173;43.164;27.786;2023-03-19T04:45:43;101179.28;;;6.08;91.81
63088;BME280;49173;43.164;27.786;2023-03-19T04:48:09;101187.25;;;6.10;91.88
63088;BME280;49173;43.164;27.786;2023-03-19T04:50:36;101192.53;;;6.11;91.77
63088;BME280;49173;43.164;27.786;2023-03-19T04:53:02;101187.28;;;6.08;92.10
63088;BME280;49173;43.164;27.786;2023-03-19T04:55:28;101198.81;;;6.09;91.97
63088;BME280;49173;43.164;27.786;2023-03-19T04:57:54;101196.13;;;6.10;91.76
63088;BME280;49173;43.164;27.786;2023-03-19T05:00:20;101184.53;;;6.11;91.43
63088;BME280;49173;43.164;27.786;2023-03-19T05:02:47;101186.28;;;6.12;91.45
63088;BME280;49173;43.164;27.786;2023-03-19T05:05:13;101190.56;;;6.19;91.51
63088;BME280;49173;43.164;27.786;2023-03-19T05:07:39;101191.53;;;6.17;91.43
63088;BME280;49173;43.164;27.786;2023-03-19T05:10:07;101185.28;;;6.18;91.83
63088;BME280;49173;43.164;27.786;2023-03-19T05:12:33;101188.06;;;6.13;91.54
63088;BME280;49173;43.164;27.786;2023-03-19T05:15:00;101192.56;;;6.10;91.63
63088;BME280;49173;43.164;27.786;2023-03-19T05:17:26;101190.78;;;6.10;92.54
63088;BME280;49173;43.164;27.786;2023-03-19T05:19:52;101197.06;;;6.08;92.81
63088;BME280;49173;43.164;27.786;2023-03-19T05:22:18;101197.09;;;6.06;92.85
63088;BME280;49173;43.164;27.786;2023-03-19T05:24:44;101189.03;;;6.09;92.79
63088;BME280;49173;43.164;27.786;2023-03-19T05:27:11;101182.88;;;6.05;92.60
63088;BME280;49173;43.164;27.786;2023-03-19T05:29:37;101190.88;;;6.07;92.45
63088;BME280;49173;43.164;27.786;2023-03-19T05:32:03;101188.06;;;6.12;92.26
63088;BME280;49173;43.164;27.786;2023-03-19T05:34:30;101190.66;;;6.16;92.33
63088;BME280;49173;43.164;27.786;2023-03-19T05:36:56;101194.03;;;6.23;91.97
63088;BME280;49173;43.164;27.786;2023-03-19T05:39:22;101184.13;;;6.29;92.15
63088;BME280;49173;43.164;27.786;2023-03-19T05:41:47;101185.72;;;6.37;91.62
63088;BME280;49173;43.164;27.786;2023-03-19T05:44:13;101182.97;;;6.40;91.14
63088;BME280;49173;43.164;27.786;2023-03-19T05:46:39;101188.09;;;6.49;91.13
63088;BME280;49173;43.164;27.786;2023-03-19T05:49:06;101186.06;;;6.58;90.57
63088;BME280;49173;43.164;27.786;2023-03-19T05:51:32;101191.50;;;6.54;89.92
63088;BME280;49173;43.164;27.786;2023-03-19T05:53:57;101186.06;;;6.58;89.93
63088;BME280;49173;43.164;27.786;2023-03-19T05:56:25;101187.78;;;6.59;89.54
63088;BME280;49173;43.164;27.786;2023-03-19T05:58:51;101177.13;;;6.59;89.63
63088;BME280;49173;43.164;27.786;2023-03-19T06:01:17;101171.84;;;6.58;88.99
63088;BME280;49173;43.164;27.786;2023-03-19T06:03:42;101181.69;;;6.54;88.19
63088;BME280;49173;43.164;27.786;2023-03-19T06:06:08;101183.47;;;6.55;88.64
63088;BME280;49173;43.164;27.786;2023-03-19T06:08:34;101191.47;;;6.55;87.96
63088;BME280;49173;43.164;27.786;2023-03-19T06:11:00;101188.88;;;6.52;88.17
63088;BME280;49173;43.164;27.786;2023-03-19T06:13:26;101192.25;;;6.59;88.07
63088;BME280;49173;43.164;27.786;2023-03-19T06:15:52;101188.66;;;6.60;nan
63088;BME280;49173;43.164;27.786;2023-03-19T06:18:17;101192.22;;;6.60;88.06
63088;BME280;49173;43.164;27.786;2023-03-19T06:20:45;101195.91;;;6.55;87.87
63088;BME280;49173;43.164;27.786;2023-03-19T06:23:11;101195.03;;;6.54;86.93
63088;BME280;49173;43.164;27.786;2023-03-19T06:25:37;101203.91;;;6.55;85.99
63088;BME280;49173;43.164;27.786;2023-03-19T06:28:14;101204.81;;;6.55;86.37
63088;BME280;49173;43.164;27.786;2023-03-19T06:30:41;101211.69;;;6.64;86.31
63088;BME280;49173;43.164;27.786;2023-03-19T06:33:07;101204.53;;;6.66;86.34
63088;BME280;49173;43.164;27.786;2023-03-19T06:35:33;101208.16;;;6.64;85.16
63088;BME280;49173;43.164;27.786;2023-03-19T06:38:00;101213.50;;;6.64;84.96
63088;BME280;49173;43.164;27.786;2023-03-19T06:40:25;101214.22;;;6.70;84.98
63088;BME280;49173;43.164;27.786;2023-03-19T06:42:51;101207.09;;;6.69;84.19
63088;BME280;49173;43.164;27.786;2023-03-19T06:45:17;101207.28;;;6.63;83.45
63088;BME280;49173;43.164;27.786;2023-03-19T06:47:46;101208.78;;;6.73;83.80
63088;BME280;49173;43.164;27.786;2023-03-19T06:50:13;101216.75;;;6.75;83.87
63088;BME280;49173;43.164;27.786;2023-03-19T06:52:41;101220.13;;;6.81;84.39
63088;BME280;49173;43.164;27.786;2023-03-19T06:55:07;101216.69;;;6.76;83.26
63088;BME280;49173;43.164;27.786;2023-03-19T06:57:34;101223.81;;;6.77;82.93
63088;BME280;49173;43.164;27.786;2023-03-19T07:00:00;101222.22;;;6.70;82.57
63088;BME280;49173;43.164;27.786;2023-03-19T07:02:26;101223.00;;;6.74;83.32
63088;BME280;49173;43.164;27.786;2023-03-19T07:04:52;101211.34;;;6.78;84.09
63088;BME280;49173;43.164;27.786;2023-03-19T07:07:18;101213.81;;;6.85;84.01
63088;BME280;49173;43.164;27.786;2023-03-19T07:09:44;101220.75;;;6.93;83.66
63088;BME280;49173;43.164;27.786;2023-03-19T07:12:09;101222.38;;;6.98;82.94
63088;BME280;49173;43.164;27.786;2023-03-19T07:14:35;101227.56;;;7.03;83.38
63088;BME280;49173;43.164;27.786;2023-03-19T07:17:01;101244.19;;;7.14;83.01
63088;BME280;49173;43.164;27.786;2023-03-19T07:19:27;101233.38;;;7.19;82.94
63088;BME280;49173;43.164;27.786;2023-03-19T07:21:52;101231.78;;;7.13;82.37
63088;BME280;49173;43.164;27.786;2023-03-19T07:24:18;101229.00;;;7.16;82.18
63088;BME280;49173;43.164;27.786;2023-03-19T07:26:44;101232.66;;;7.13;82.32
63088;BME280;49173;43.164;27.786;2023-03-19T07:29:11;101228.09;;;7.17;81.88
63088;BME280;49173;43.164;27.786;2023-03-19T07:31:37;101236.97;;;7.18;82.05
63088;BME280;49173;43.164;27.786;2023-03-19T07:34:02;101238.69;;;7.20;81.54
63088;BME280;49173;43.164;27.786;2023-03-19T07:36:28;101229.94;;;7.15;81.27
63088;BME280;49173;43.164;27.786;2023-03-19T07:38:54;101240.59;;;7.15;81.18
63088;BME280;49173;43.164;27.786;2023-03-19T07:41:20;101229.13;;;7.11;80.96
63088;BME280;49173;43.164;27.786;2023-03-19T07:43:46;101230.69;;;7.20;82.01
63088;BME280;49173;43.164;27.786;2023-03-19T07:46:11;101227.72;;;7.31;81.44
63088;BME280;49173;43.164;27.786;2023-03-19T07:48:38;101233.72;;;7.39;80.61
63088;BME280;49173;43.164;27.786;2023-03-19T07:51:04;101232.84;;;7.38;80.95
63088;BME280;49173;43.164;27.786;2023-03-19T07:53:30;101232.75;;;7.41;80.17
63088;BME280;49173;43.164;27.786;2023-03-19T07:55:56;101236.09;;;7.50;80.16
63088;BME280;49173;43.164;27.786;2023-03-19T07:58:22;101231.63;;;7.50;79.88
63088;BME280;49173;43.164;27.786;2023-03-19T08:00:47;101236.00;;;7.53;79.79
63088;BME280;49173;43.164;27.786;2023-03-19T08:03:13;101233.31;;;7.53;79.85
63088;BME280;49173;43.164;27.786;2023-03-19T08:05:40;101229.91;;;7.48;79.29
63088;BME280;49173;43.164;27.786;2023-03-19T08:08:06;101233.50;;;7.47;79.09
63088;BME280;49173;43.164;27.786;2023-03-19T08:10:32;101222.81;;;7.47;80.01
63088;BME280;49173;43.164;27.786;2023-03-19T08:12:58;101231.53;;;7.53;80.09
63088;BME280;49173;43.164;27.786;2023-03-19T08:15:23;101228.72;;;7.58;79.82
63088;BME280;49173;43.164;27.786;2023-03-19T08:17:56;101227.81;;;7.59;79.38
63088;BME280;49173;43.164;27.786;2023-03-19T08:20:22;101230.63;;;7.54;79.13
63088;BME280;49173;43.164;27.786;2023-03-19T08:22:49;101226.94;;;7.58;79.41
63088;BME280;49173;43.164;27.786;2023-03-19T08:25:15;101229.38;;;7.66;80.03
63088;BME280;49173;43.164;27.786;2023-03-19T08:27:41;101231.13;;;7.67;78.99
63088;BME280;49173;43.164;27.786;2023-03-19T08:30:08;101227.34;;;7.74;79.15
63088;BME280;49173;43.164;27.786;2023-03-19T08:32:34;101225.53;;;7.76;79.06
63088;BME280;49173;43.164;27.786;2023-03-19T08:35:00;101225.38;;;7.81;79.22
63088;BME280;49173;43.164;27.786;2023-03-19T08:37:26;101219.72;;;7.91;79.58
63088;BME280;49173;43.164;27.786;2023-03-19T08:39:52;101225.72;;;7.99;79.40
63088;BME280;49173;43.164;27.786;2023-03-19T08:42:18;101238.00;;;8.05;78.75
63088;BME280;49173;43.164;27.786;2023-03-19T08:44:44;101225.47;;;8.07;78.66
63088;BME280;49173;43.164;27.786;2023-03-19T08:47:10;101230.00;;;8.05;78.78
63088;BME280;49173;43.164;27.786;2023-03-19T08:49:36;101229.19;;;8.02;77.50
63088;BME280;49173;43.164;27.786;2023-03-19T08:52:21;101224.53;;;8.08;78.74
63088;BME280;49173;43.164;27.786;2023-03-19T08:55:06;101220.81;;;8.14;77.24
63088;BME280;49173;43.164;27.786;2023-03-19T08:57:51;101218.56;;;8.28;78.28
63088;BME280;49173;43.164;27.786;2023-03-19T09:00:35;101214.69;;;8.38;77.13
63088;BME280;49173;43.164;27.786;2023-03-19T09:03:20;101217.56;;;8.32;76.60
63088;BME280;49173;43.164;27.786;2023-03-19T09:06:07;101220.84;;;8.42;77.01
63088;BME280;49173;43.164;27.786;2023-03-19T09:08:51;101225.25;;;8.43;76.71
63088;BME280;49173;43.164;27.786;2023-03-19T09:11:35;101227.75;;;8.49;76.34
63088;BME280;49173;43.164;27.786;2023-03-19T09:14:20;101227.53;;;8.55;75.84
63088;BME280;49173;43.164;27.786;2023-03-19T09:17:06;101223.69;;;8.64;75.74
63088;BME280;49173;43.164;27.786;2023-03-19T09:19:50;101225.28;;;8.69;76.06
63088;BME280;49173;43.164;27.786;2023-03-19T09:22:35;101225.34;;;8.68;75.58
63088;BME280;49173;43.164;27.786;2023-03-19T09:25:19;101218.00;;;8.73;75.60
63088;BME280;49173;43.164;27.786;2023-03-19T09:28:03;101214.66;;;8.66;74.44
63088;BME280;49173;43.164;27.786;2023-03-19T09:30:49;101220.06;;;8.65;75.13
63088;BME280;49173;43.164;27.786;2023-03-19T09:33:34;101210.97;;;8.70;75.10
63088;BME280;49173;43.164;27.786;2023-03-19T09:36:18;101203.75;;;8.72;75.63
63088;BME280;49173;43.164;27.786;2023-03-19T09:38:48;101211.38;;;8.85;75.33
63088;BME280;49173;43.164;27.786;2023-03-19T09:44:03;101200.56;;;8.88;75.10
63088;BME280;49173;43.164;27.786;2023-03-19T09:49:20;101194.13;;;8.93;75.02
63088;BME280;49173;43.164;27.786;2023-03-19T09:51:52;101196.50;;;9.02;73.80
63088;BME280;49173;43.164;27.786;2023-03-19T09:57:08;101190.38;;;9.24;74.57
63088;BME280;49173;43.164;27.786;2023-03-19T09:59:35;101175.97;;;9.26;73.26
63088;BME280;49173;43.164;27.786;2023-03-19T10:10:44;101175.78;;;9.56;73.35
63088;BME280;49173;43.164;27.786;2023-03-19T10:13:28;101172.34;;;9.52;72.05
63088;BME280;49173;43.164;27.786;2023-03-19T10:15:59;101170.53;;;9.53;72.42
63088;BME280;49173;43.164;27.786;2023-03-19T10:18:32;101176.78;;;9.53;73.03
63088;BME280;49173;43.164;27.786;2023-03-19T10:23:44;101176.41;;;9.62;72.08
63088;BME280;49173;43.164;27.786;2023-03-19T10:26:15;101169.06;;;9.68;71.88
63088;BME280;49173;43.164;27.786;2023-03-19T10:28:43;101165.47;;;9.69;71.64
63088;BME280;49173;43.164;27.786;2023-03-19T10:31:27;101165.28;;;9.73;73.15
63088;BME280;49173;43.164;27.786;2023-03-19T10:36:46;101161.69;;;9.74;71.05
63088;BME280;49173;43.164;27.786;2023-03-19T10:39:14;101151.03;;;9.73;71.16
63088;BME280;49173;43.164;27.786;2023-03-19T10:42:07;101160.56;;;9.80;71.68
63088;BME280;49173;43.164;27.786;2023-03-19T10:44:59;101155.16;;;9.81;72.00
63088;BME280;49173;43.164;27.786;2023-03-19T10:47:27;101148.91;;;9.81;70.88
63088;BME280;49173;43.164;27.786;2023-03-19T10:49:55;101146.97;;;9.84;71.11
63088;BME280;49173;43.164;27.786;2023-03-19T10:52:30;101145.84;;;9.90;71.61
63088;BME280;49173;43.164;27.786;2023-03-19T10:57:41;101134.09;;;9.94;70.59
63088;BME280;49173;43.164;27.786;2023-03-19T11:00:19;101136.50;;;10.00;71.38
63088;BME280;49173;43.164;27.786;2023-03-19T11:02:54;101131.41;;;9.94;70.95
63088;BME280;49173;43.164;27.786;2023-03-19T11:07:50;101124.34;;;9.91;70.99
63088;BME280;49173;43.164;27.786;2023-03-19T11:10:21;101125.34;;;9.89;71.13
63088;BME280;49173;43.164;27.786;2023-03-19T11:12:58;101120.59;;;9.96;71.39
63088;BME280;49173;43.164;27.786;2023-03-19T11:15:36;101117.84;;;9.97;70.89
63088;BME280;49173;43.164;27.786;2023-03-19T11:20:48;101103.69;;;9.94;71.32
63088;BME280;49173;43.164;27.786;2023-03-19T11:23:16;101108.69;;;10.03;71.71
63088;BME280;49173;43.164;27.786;2023-03-19T11:25:50;101103.63;;;10.17;71.60
63088;BME280;49173;43.164;27.786;2023-03-19T11:28:19;101095.53;;;10.18;71.08
63088;BME280;49173;43.164;27.786;2023-03-19T11:31:14;101094.34;;;10.26;70.74
63088;BME280;49173;43.164;27.786;2023-03-19T11:34:23;101096.53;;;10.38;69.85
63088;BME280;49173;43.164;27.786;2023-03-19T11:39:36;101096.13;;;10.47;70.09
63088;BME280;49173;43.164;27.786;2023-03-19T11:45:24;101090.09;;;10.62;68.61
63088;BME280;49173;43.164;27.786;2023-03-19T11:50:35;101081.44;;;10.56;67.24
63088;BME280;49173;43.164;27.786;2023-03-19T11:58:42;101082.31;;;10.56;67.21
63088;BME280;49173;43.164;27.786;2023-03-19T12:12:15;101071.38;;;10.81;67.21
63088;BME280;49173;43.164;27.786;2023-03-19T12:14:49;101077.47;;;10.85;67.04
63088;BME280;49173;43.164;27.786;2023-03-19T12:17:37;101066.59;;;10.88;66.38
63088;BME280;49173;43.164;27.786;2023-03-19T12:26:16;101066.84;;;11.02;67.27
63088;BME280;49173;43.164;27.786;2023-03-19T12:29:14;101070.66;;;11.17;66.63
63088;BME280;49173;43.164;27.786;2023-03-19T12:42:42;101057.44;;;11.50;66.18
63088;BME280;49173;43.164;27.786;2023-03-19T12:45:43;101053.06;;;11.66;64.82
63088;BME280;49173;43.164;27.786;2023-03-19T12:48:16;101053.31;;;11.80;64.83
63088;BME280;49173;43.164;27.786;2023-03-19T12:50:47;101060.84;;;11.72;63.52
63088;BME280;49173;43.164;27.786;2023-03-19T12:56:03;101056.72;;;11.46;64.10
63088;BME280;49173;43.164;27.786;2023-03-19T12:58:52;101055.34;;;11.38;64.10
63088;BME280;49173;43.164;27.786;2023-03-19T13:01:44;101051.69;;;11.39;64.22
63088;BME280;49173;43.164;27.786;2023-03-19T13:04:25;101047.13;;;11.41;63.55
63088;BME280;49173;43.164;27.786;2023-03-19T13:07:02;101048.88;;;11.42;63.72
63088;BME280;49173;43.164;27.786;2023-03-19T13:09:57;101049.00;;;11.39;63.91
63088;BME280;49173;43.164;27.786;2023-03-19T13:12:26;101041.53;;;11.45;64.36
63088;BME280;49173;43.164;27.786;2023-03-19T13:15:08;101040.78;;;11.61;63.87
63088;BME280;49173;43.164;27.786;2023-03-19T13:20:49;101045.88;;;11.48;63.70
63088;BME280;49173;43.164;27.786;2023-03-19T13:23:33;101042.31;;;11.47;64.50
63088;BME280;49173;43.164;27.786;2023-03-19T13:26:01;101035.78;;;11.53;64.08
63088;BME280;49173;43.164;27.786;2023-03-19T13:28:34;101031.56;;;11.66;64.08
63088;BME280;49173;43.164;27.786;2023-03-19T13:31:06;101026.53;;;11.77;64.23
63088;BME280;49173;43.164;27.786;2023-03-19T13:33:36;101025.38;;;11.83;63.62
63088;BME280;49173;43.164;27.786;2023-03-19T13:36:06;101028.81;;;11.87;62.80
63088;BME280;49173;43.164;27.786;2023-03-19T13:38:42;101017.38;;;11.81;62.61
63088;BME280;49173;43.164;27.786;2023-03-19T13:43:59;101003.13;;;11.79;62.13
63088;BME280;49173;43.164;27.786;2023-03-19T13:46:29;101003.41;;;11.92;61.95
63088;BME280;49173;43.164;27.786;2023-03-19T13:49:09;100997.09;;;11.93;62.27
63088;BME280;49173;43.164;27.786;2023-03-19T13:51:47;100997.56;;;11.84;62.34
63088;BME280;49173;43.164;27.786;2023-03-19T13:54:15;100997.09;;;11.74;62.31
63088;BME280;49173;43.164;27.786;2023-03-19T13:59:36;100996.34;;;11.90;62.66
63088;BME280;49173;43.164;27.786;2023-03-19T14:05:06;100990.34;;;11.85;62.41
63088;BME280;49173;43.164;27.786;2023-03-19T14:07:39;100978.41;;;11.90;62.16
63088;BME280;49173;43.164;27.786;2023-03-19T14:10:17;100978.34;;;11.92;61.52
63088;BME280;49173;43.164;27.786;2023-03-19T14:12:46;100975.69;;;11.90;61.60
63088;BME280;49173;43.164;27.786;2023-03-19T14:15:20;100974.41;;;11.80;61.90
63088;BME280;49173;43.164;27.786;2023-03-19T14:17:58;100977.19;;;11.78;62.07
63088;BME280;49173;43.164;27.786;2023-03-19T14:20:29;100968.69;;;11.69;62.43
63088;BME280;49173;43.164;27.786;2023-03-19T14:26:03;100964.94;;;11.54;63.23
63088;BME280;49173;43.164;27.786;2023-03-19T14:28:39;100972.06;;;11.55;63.35
63088;BME280;49173;43.164;27.786;2023-03-19T14:32:12;100970.47;;;11.51;63.38
63088;BME280;49173;43.164;27.786;2023-03-19T14:37:14;100978.09;;;11.60;62.67
63088;BME280;49173;43.164;27.786;2023-03-19T14:39:45;100979.19;;;11.56;62.91